Time;durP1;ratioP1;P1;durP2;ratioP2;P2;SDS_P1;SDS_P2;PMS_P1;PMS_P2;Temp;Humidity;BMP_temperature;BMP_pressure;BME280_temperature;BME280_humidity;BME280_pressure;Samples;Min_cycle;Max_cycle;Signal;HPM_P1;HPM_P2
2022/10/26 00:01:02;;;;;;;10.32;4.18;;;;;;;13.32;87.67;99980.06;5023786;28;20394;-88
2022/10/26 00:03:29;;;;;;;7.88;3.17;;;;;;;13.46;87.78;99982.25;5026206;28;20128;-89
2022/10/26 00:06:02;;;;;;;10.65;3.92;;;;;;;13.42;87.16;99979.00;5034180;28;20067;-89
2022/10/26 00:08:29;;;;;;;9.30;3.92;;;;;;;13.49;86.38;99967.75;5032041;28;20119;-88
2022/10/26 00:10:58;;;;;;;10.48;4.32;;;;;;;13.47;86.05;99967.91;5048224;28;20045;-88
2022/10/26 00:13:25;;;;;;;10.35;4.10;;;;;;;13.45;86.64;99962.69;5026941;28;20072;-88
2022/10/26 00:15:52;;;;;;;13.45;4.18;;;;;;;13.44;86.74;99954.88;5032906;28;20048;-88
2022/10/26 00:18:19;;;;;;;9.32;3.90;;;;;;;13.36;86.78;99949.47;5043049;28;20041;-88
2022/10/26 00:20:46;;;;;;;8.68;4.13;;;;;;;13.41;86.42;99949.84;5023745;28;20489;-88
2022/10/26 00:23:12;;;;;;;9.70;3.78;;;;;;;13.41;86.63;99960.50;5044187;28;20048;-88
2022/10/26 00:25:39;;;;;;;6.93;3.30;;;;;;;13.43;86.88;99963.84;5027280;28;20045;-88
2022/10/26 00:28:06;;;;;;;7.30;3.72;;;;;;;13.38;87.62;99985.66;5031632;28;20041;-89
2022/10/26 00:30:32;;;;;;;14.57;4.22;;;;;;;13.41;87.74;99987.19;5019911;28;20488;-89
2022/10/26 00:32:59;;;;;;;6.10;3.80;;;;;;;13.49;87.88;99999.78;5026135;28;20053;-88
2022/10/26 00:35:26;;;;;;;8.35;3.70;;;;;;;13.51;88.25;100003.09;5027307;28;20559;-88
2022/10/26 00:38:11;;;;;;;8.85;3.80;;;;;;;13.43;88.90;100007.38;5023420;28;20042;-89
2022/10/26 00:40:38;;;;;;;6.55;3.83;;;;;;;13.44;88.48;100009.06;5025247;28;20051;-88
2022/10/26 00:43:28;;;;;;;9.13;4.22;;;;;;;13.38;87.74;100004.34;5025046;28;20069;-88
2022/10/26 00:45:56;;;;;;;7.38;3.85;;;;;;;13.46;87.41;99988.41;4999873;28;20037;-88
2022/10/26 00:48:37;;;;;;;9.30;4.10;;;;;;;13.32;87.80;99986.25;5029678;28;20456;-87
2022/10/26 00:51:08;;;;;;;10.40;4.03;;;;;;;13.42;87.50;99987.03;4976302;28;20045;-87
2022/10/26 00:53:35;;;;;;;6.85;3.33;;;;;;;13.39;88.55;99994.50;5029746;28;20103;-88
2022/10/26 00:56:02;;;;;;;11.82;4.03;;;;;;;13.39;89.20;100003.31;5020296;28;20049;-88
2022/10/26 00:58:29;;;;;;;8.57;3.88;;;;;;;13.33;89.89;100000.41;5035891;28;20053;-87
2022/10/26 01:00:56;;;;;;;14.65;3.83;;;;;;;13.37;89.68;100004.47;5025663;28;20103;-88
2022/10/26 01:03:26;;;;;;;16.42;3.90;;;;;;;13.37;89.75;100007.13;5028764;28;20052;-88
2022/10/26 01:05:56;;;;;;;10.35;3.65;;;;;;;13.40;89.52;99998.81;5027945;28;20041;-88
2022/10/26 01:08:23;;;;;;;15.30;4.00;;;;;;;13.44;88.95;99998.38;5047228;28;20048;-87
2022/10/26 01:10:49;;;;;;;7.25;3.55;;;;;;;13.51;88.46;99987.09;5045068;28;20485;-88
2022/10/26 01:13:16;;;;;;;6.43;3.60;;;;;;;13.53;88.41;99995.78;5030461;28;20053;-88
2022/10/26 01:16:02;;;;;;;7.28;3.53;;;;;;;13.29;89.47;99988.38;5024871;28;20045;-88
2022/10/26 01:18:44;;;;;;;5.85;3.42;;;;;;;13.33;89.43;99993.28;5012555;28;20041;-89
2022/10/26 01:21:29;;;;;;;10.52;3.38;;;;;;;13.49;88.76;99989.94;4987808;28;20511;-87
2022/10/26 01:24:20;;;;;;;8.52;3.42;;;;;;;13.41;89.10;99990.69;5017115;28;20063;-88
2022/10/26 01:27:11;;;;;;;5.45;3.35;;;;;;;13.32;90.25;99988.91;4988646;28;20148;-88
2022/10/26 01:29:52;;;;;;;14.40;3.60;;;;;;;13.45;89.11;99992.03;4987303;28;20392;-87
2022/10/26 01:32:23;;;;;;;9.77;3.90;;;;;;;13.45;89.49;99988.53;5008555;28;20087;-87
2022/10/26 01:35:07;;;;;;;4.88;3.38;;;;;;;13.44;89.47;99986.88;5030935;28;20099;-87
2022/10/26 01:37:37;;;;;;;10.32;3.40;;;;;;;13.45;90.03;99988.53;5007904;28;20049;-87
2022/10/26 01:40:18;;;;;;;9.15;3.30;;;;;;;13.39;90.71;99987.31;5031756;28;20048;-87
2022/10/26 01:42:48;;;;;;;5.78;3.05;;;;;;;13.45;90.33;99976.03;5011752;28;20048;-87
2022/10/26 01:45:15;;;;;;;14.57;3.85;;;;;;;13.51;90.23;99974.63;5029181;28;20041;-87
2022/10/26 01:47:42;;;;;;;8.65;3.55;;;;;;;13.49;90.25;99973.94;5045865;28;20096;-88
2022/10/26 01:50:10;;;;;;;13.50;3.38;;;;;;;13.51;90.55;99966.63;5045734;28;20071;-88
2022/10/26 01:52:36;;;;;;;8.52;3.45;;;;;;;13.51;90.42;99963.94;5011621;28;20051;-88
2022/10/26 01:55:06;;;;;;;9.52;3.33;;;;;;;13.60;89.56;99967.53;5028318;28;20057;-88
2022/10/26 01:57:34;;;;;;;9.45;3.35;;;;;;;13.59;88.69;99960.53;5041936;28;20041;-88
2022/10/26 02:00:07;;;;;;;9.77;3.53;;;;;;;13.54;88.69;99950.31;5015463;28;20388;-88
2022/10/26 02:03:03;;;;;;;9.55;3.10;;;;;;;13.36;90.96;99947.63;5007256;28;20492;-88
2022/10/26 02:06:05;;;;;;;7.88;3.53;;;;;;;13.42;90.32;99931.00;4979137;28;20477;-87
2022/10/26 02:08:49;;;;;;;11.52;3.35;;;;;;;13.44;88.81;99930.88;4982735;28;20491;-87
2022/10/26 02:11:22;;;;;;;11.38;3.00;;;;;;;13.44;88.62;99926.38;5010204;28;20051;-87
2022/10/26 02:13:58;;;;;;;11.68;3.55;;;;;;;13.49;88.32;99925.06;4994721;28;20037;-88
2022/10/26 02:16:57;;;;;;;8.40;2.63;;;;;;;13.48;88.35;99920.72;5028192;28;20041;-88
2022/10/26 02:19:43;;;;;;;5.22;2.92;;;;;;;13.46;88.46;99920.88;4981635;28;20037;-87
2022/10/26 02:22:14;;;;;;;5.47;2.80;;;;;;;13.53;88.29;99931.78;5016055;28;20069;-88
2022/10/26 02:24:42;;;;;;;6.82;2.88;;;;;;;13.62;87.86;99917.53;5017241;28;20422;-89
2022/10/26 02:27:14;;;;;;;9.57;3.45;;;;;;;13.59;88.29;99923.16;5024370;28;20073;-89
2022/10/26 02:29:42;;;;;;;9.18;2.83;;;;;;;13.63;87.76;99925.34;5018166;28;20046;-88
2022/10/26 02:32:09;;;;;;;7.07;3.03;;;;;;;13.62;88.35;99936.19;5037275;28;20116;-88
2022/10/26 02:34:37;;;;;;;8.55;3.10;;;;;;;13.65;87.83;99931.38;5021409;28;20383;-87
2022/10/26 02:37:04;;;;;;;11.70;3.15;;;;;;;13.65;88.68;99935.88;5019726;28;20492;-87
2022/10/26 02:39:33;;;;;;;6.75;2.90;;;;;;;13.61;89.03;99937.16;5017481;28;20119;-87
2022/10/26 02:42:02;;;;;;;9.00;2.80;;;;;;;13.62;88.47;99934.38;5032687;28;20103;-87
2022/10/26 02:44:33;;;;;;;6.05;2.90;;;;;;;13.60;88.79;99949.69;5035915;28;20061;-87
2022/10/26 02:47:00;;;;;;;8.02;2.63;;;;;;;13.60;89.96;99955.03;5022246;28;20052;-87
2022/10/26 02:49:27;;;;;;;9.65;3.05;;;;;;;13.57;90.13;99957.16;5044487;28;20049;-87
2022/10/26 02:52:26;;;;;;;6.47;2.58;;;;;;;13.50;90.80;99964.94;5042929;28;20044;-87
2022/10/26 02:55:01;;;;;;;6.30;3.22;;;;;;;13.40;92.03;99958.81;4949026;28;20089;-88
2022/10/26 02:57:46;;;;;;;6.05;2.97;;;;;;;13.45;91.31;99965.38;4984026;28;20037;-87
2022/10/26 03:00:15;;;;;;;6.70;2.97;;;;;;;13.44;91.62;99961.03;5010673;28;20052;-88
2022/10/26 03:02:43;;;;;;;8.38;2.70;;;;;;;13.48;91.72;99958.91;5007372;28;20037;-89
2022/10/26 03:05:18;;;;;;;8.27;3.13;;;;;;;13.45;92.01;99964.53;4999858;28;20037;-88
2022/10/26 03:07:45;;;;;;;6.85;3.15;;;;;;;13.50;91.68;99948.09;5020037;28;20048;-88
2022/10/26 03:10:11;;;;;;;9.13;3.20;;;;;;;13.45;92.14;99940.53;5044870;28;20048;-89
2022/10/26 03:12:38;;;;;;;7.68;3.03;;;;;;;13.51;91.72;99945.28;5044109;28;20042;-88
2022/10/26 03:15:06;;;;;;;8.10;3.30;;;;;;;13.51;92.15;99949.75;5012294;28;20435;-90
2022/10/26 03:17:32;;;;;;;6.55;2.88;;;;;;;13.48;92.40;99942.88;5016709;28;20104;-87
2022/10/26 03:19:59;;;;;;;10.82;3.15;;;;;;;13.50;92.19;99954.25;5033380;28;20065;-88
2022/10/26 03:22:26;;;;;;;6.60;2.70;;;;;;;13.49;92.45;99951.75;5002900;28;20068;-88
2022/10/26 03:24:52;;;;;;;12.32;3.17;;;;;;;13.49;92.72;99963.25;5039337;28;20468;-88
2022/10/26 03:27:19;;;;;;;6.53;2.70;;;;;;;13.49;92.91;99965.09;5001294;28;21866;-88
2022/10/26 03:29:46;;;;;;;5.43;2.60;;;;;;;13.47;93.39;99967.91;5024171;28;20049;-88
2022/10/26 03:32:12;;;;;;;7.13;2.92;;;;;;;13.43;93.51;99966.50;5040853;28;20458;-88
2022/10/26 03:34:39;;;;;;;9.27;2.97;;;;;;;13.45;93.44;99975.22;5043062;28;20128;-88
2022/10/26 03:37:06;;;;;;;9.68;3.33;;;;;;;13.51;92.48;99971.97;5016724;28;20052;-87
2022/10/26 03:39:33;;;;;;;8.77;3.45;;;;;;;13.57;92.25;99970.50;5030475;28;20040;-87
2022/10/26 03:41:59;;;;;;;6.93;2.92;;;;;;;13.50;92.97;99972.09;5020947;28;20041;-88
2022/10/26 03:44:26;;;;;;;5.88;2.80;;;;;;;13.48;93.49;99969.56;5022887;28;20045;-88
2022/10/26 03:46:53;;;;;;;7.00;3.00;;;;;;;13.44;93.45;99965.53;5026118;28;20071;-89
2022/10/26 03:49:19;;;;;;;67.50;25.85;;;;;;;13.46;93.38;99971.56;5020486;28;20048;-87
2022/10/26 03:51:46;;;;;;;25.95;10.48;;;;;;;13.43;93.57;99959.38;5021067;28;20054;-88
2022/10/26 03:54:13;;;;;;;16.13;5.50;;;;;;;13.49;92.97;99962.44;5031338;28;20136;-87
2022/10/26 03:56:39;;;;;;;11.95;3.80;;;;;;;13.50;93.07;99959.59;5041747;28;20104;-88
2022/10/26 03:59:06;;;;;;;10.18;3.55;;;;;;;13.49;93.06;99957.91;5043541;28;20045;-87
2022/10/26 04:01:33;;;;;;;15.15;4.53;;;;;;;13.49;93.28;99965.94;5030303;28;20121;-89
2022/10/26 04:04:00;;;;;;;15.32;5.95;;;;;;;13.47;93.22;99957.22;5029479;28;20506;-88
2022/10/26 04:06:27;;;;;;;14.68;4.72;;;;;;;13.50;92.95;99956.91;5030506;28;20139;-87
2022/10/26 04:08:57;;;;;;;10.38;4.05;;;;;;;13.56;92.55;99947.47;5023558;28;20052;-88
2022/10/26 04:11:24;;;;;;;12.32;4.40;;;;;;;13.52;92.56;99952.28;5023675;28;20048;-88
2022/10/26 04:13:51;;;;;;;9.25;3.90;;;;;;;13.51;92.76;99966.63;5022146;28;20052;-88
2022/10/26 04:16:17;;;;;;;6.10;4.07;;;;;;;13.51;93.08;99963.94;5024565;28;20119;-88
2022/10/26 04:18:45;;;;;;;8.25;3.75;;;;;;;13.50;92.97;99954.25;5042732;28;20527;-88
2022/10/26 04:21:12;;;;;;;11.48;3.42;;;;;;;13.49;93.07;99965.94;5047688;28;20055;-87
2022/10/26 04:23:38;;;;;;;9.50;3.90;;;;;;;13.50;93.18;99962.25;5026445;28;20048;-87
2022/10/26 04:26:05;;;;;;;11.68;3.78;;;;;;;13.49;93.48;99962.44;5023849;28;20408;-87
2022/10/26 04:28:32;;;;;;;13.98;4.50;;;;;;;13.50;93.30;99964.09;5039677;28;20033;-87
2022/10/26 04:30:59;;;;;;;8.30;3.50;;;;;;;13.48;93.67;99966.91;5039265;28;20063;-87
2022/10/26 04:33:25;;;;;;;8.45;3.53;;;;;;;13.45;93.68;99964.53;5044580;28;20049;-89
2022/10/26 04:35:58;;;;;;;9.68;3.20;;;;;;;13.42;93.37;99965.69;5014442;28;20045;-88
2022/10/26 04:38:24;;;;;;;8.10;3.55;;;;;;;13.40;93.87;99948.97;4997072;28;20038;-87
2022/10/26 04:40:52;;;;;;;10.70;3.20;;;;;;;13.44;94.00;99954.88;5040462;28;20510;-89
2022/10/26 04:43:18;;;;;;;4.60;2.90;;;;;;;13.44;93.85;99938.88;5014140;28;20044;-88
2022/10/26 04:45:45;;;;;;;8.65;3.10;;;;;;;13.45;94.28;99944.03;5038679;28;20045;-88
2022/10/26 04:48:12;;;;;;;8.73;3.17;;;;;;;13.42;94.20;99939.00;5038359;28;20516;-88
2022/10/26 04:50:39;;;;;;;5.57;2.65;;;;;;;13.42;94.34;99940.84;5015868;28;20044;-89
2022/10/26 04:53:08;;;;;;;7.47;3.00;;;;;;;13.40;94.27;99940.97;5018430;28;20045;-88
2022/10/26 04:55:35;;;;;;;10.32;2.97;;;;;;;13.46;93.79;99944.91;5024304;28;20448;-88
2022/10/26 04:58:02;;;;;;;10.45;3.08;;;;;;;13.40;94.57;99951.66;5043248;28;20112;-88
2022/10/26 05:00:31;;;;;;;5.75;2.90;;;;;;;13.41;94.14;99949.84;5026465;28;20118;-89
2022/10/26 05:02:59;;;;;;;10.40;3.58;;;;;;;13.42;94.03;99946.19;5025729;28;20046;-88
2022/10/26 05:05:26;;;;;;;6.88;3.25;;;;;;;13.41;94.58;99944.50;5039416;28;20048;-88
2022/10/26 05:07:56;;;;;;;7.53;3.50;;;;;;;13.34;94.66;99946.09;5027724;28;20057;-88
2022/10/26 05:10:23;;;;;;;5.45;3.03;;;;;;;13.36;94.25;99936.13;5034413;28;20054;-89
2022/10/26 05:12:54;;;;;;;10.23;3.80;;;;;;;13.37;94.33;99940.47;5022047;28;20049;-88
2022/10/26 05:15:21;;;;;;;8.13;4.18;;;;;;;13.39;94.41;99933.16;5026938;28;20104;-88
2022/10/26 05:18:00;;;;;;;10.18;3.60;;;;;;;13.37;94.09;99924.44;5020199;28;20128;-89
2022/10/26 05:20:30;;;;;;;7.43;3.75;;;;;;;13.39;94.41;99930.47;5008208;28;20068;-89
2022/10/26 05:22:58;;;;;;;21.52;4.03;;;;;;;13.38;94.33;99923.44;5017650;28;20517;-88
2022/10/26 05:25:25;;;;;;;12.25;3.83;;;;;;;13.40;94.33;99922.31;5025919;28;20060;-88
2022/10/26 05:27:59;;;;;;;10.77;3.50;;;;;;;13.32;94.80;99934.75;5025926;28;20045;-82
2022/10/26 05:30:27;;;;;;;9.57;3.70;;;;;;;13.34;94.97;99938.94;4989000;28;20099;-81
2022/10/26 05:32:58;;;;;;;9.55;3.72;;;;;;;13.31;95.14;99933.06;5014067;28;20056;-82
2022/10/26 05:35:25;;;;;;;8.00;2.90;;;;;;;13.35;94.92;99939.75;5039253;28;20463;-82
2022/10/26 05:37:52;;;;;;;8.93;2.95;;;;;;;13.33;95.07;99937.25;5017931;28;20518;-82
2022/10/26 05:40:20;;;;;;;5.43;2.72;;;;;;;13.35;95.19;99947.75;5031037;28;20052;-81
2022/10/26 05:42:46;;;;;;;6.28;3.03;;;;;;;13.32;95.51;99962.25;5009655;28;20115;-81
2022/10/26 05:45:13;;;;;;;6.45;3.03;;;;;;;13.33;95.58;99976.41;5051490;28;20067;-82
2022/10/26 05:47:41;;;;;;;5.75;3.00;;;;;;;13.37;95.38;99989.28;5044880;28;20053;-81
2022/10/26 05:50:10;;;;;;;9.25;2.90;;;;;;;13.38;95.23;99976.78;5029522;28;20083;-82
2022/10/26 05:52:41;;;;;;;6.45;2.97;;;;;;;13.36;95.15;99981.47;5028060;28;20542;-82
2022/10/26 05:55:09;;;;;;;10.68;3.13;;;;;;;13.42;95.04;99983.53;5012030;28;20182;-82
2022/10/26 05:57:37;;;;;;;8.05;3.05;;;;;;;13.44;94.90;99984.22;5012852;28;20403;-81
2022/10/26 06:00:09;;;;;;;6.55;3.00;;;;;;;13.34;95.60;99996.78;5034798;28;20087;-81
2022/10/26 06:03:04;;;;;;;7.68;3.08;;;;;;;13.30;96.21;100001.53;5012310;28;20377;-82
2022/10/26 06:05:37;;;;;;;6.55;2.72;;;;;;;13.40;95.25;100005.00;4978609;28;20120;-81
2022/10/26 06:08:08;;;;;;;10.60;3.03;;;;;;;13.39;95.75;100008.66;5028101;28;20107;-82
2022/10/26 06:10:36;;;;;;;5.55;2.60;;;;;;;13.40;95.91;100009.50;5049701;28;20044;-82
2022/10/26 06:13:03;;;;;;;5.40;2.80;;;;;;;13.41;95.67;100014.69;5037374;28;20052;-82
2022/10/26 06:15:31;;;;;;;8.00;3.15;;;;;;;13.42;95.59;100023.53;5043870;28;20091;-82
2022/10/26 06:18:08;;;;;;;9.60;3.30;;;;;;;13.37;95.94;100031.97;5041957;28;20044;-80
2022/10/26 06:20:46;;;;;;;10.68;3.55;;;;;;;13.32;96.23;100036.09;5024298;28;20386;-80
2022/10/26 06:23:27;;;;;;;11.32;3.22;;;;;;;13.36;96.10;100034.81;5029764;28;20075;-80
2022/10/26 06:26:00;;;;;;;11.70;3.50;;;;;;;13.36;96.06;100038.31;5023036;28;20041;-80
2022/10/26 06:28:35;;;;;;;4.82;3.28;;;;;;;13.36;95.84;100038.31;5026834;28;20048;-80
2022/10/26 06:31:02;;;;;;;8.02;3.72;;;;;;;13.42;95.45;100035.03;5015603;28;20053;-81
2022/10/26 06:33:29;;;;;;;12.75;4.20;;;;;;;13.41;95.79;100035.19;5039449;28;20485;-80
2022/10/26 06:36:08;;;;;;;9.35;3.92;;;;;;;13.29;96.38;100031.88;5047019;28;20426;-80
2022/10/26 06:38:35;;;;;;;12.90;4.20;;;;;;;13.36;96.75;100040.97;5025593;28;20059;-80
2022/10/26 06:41:02;;;;;;;12.60;4.53;;;;;;;13.35;96.61;100039.28;5025023;28;20107;-80
2022/10/26 06:43:31;;;;;;;4.63;3.50;;;;;;;13.37;96.28;100044.47;5042768;28;20088;-80
2022/10/26 06:46:25;;;;;;;12.10;4.05;;;;;;;13.24;97.17;100036.78;5026997;28;20041;-80
2022/10/26 06:49:01;;;;;;;6.85;3.35;;;;;;;13.28;96.97;100048.88;5014488;28;20080;-80
2022/10/26 06:51:29;;;;;;;9.60;4.40;;;;;;;13.37;96.46;100049.81;4978029;28;20496;-81
2022/10/26 06:54:05;;;;;;;11.15;4.13;;;;;;;13.36;96.33;100053.47;5037971;28;20091;-81
2022/10/26 06:56:31;;;;;;;6.75;3.85;;;;;;;13.37;96.89;100050.66;5028444;28;20044;-81
2022/10/26 06:59:06;;;;;;;6.28;3.70;;;;;;;13.36;96.36;100053.47;5013096;28;20049;-81
2022/10/26 07:01:33;;;;;;;11.38;3.92;;;;;;;13.38;96.79;100057.69;5029810;28;20170;-81
2022/10/26 07:03:59;;;;;;;13.82;4.03;;;;;;;13.41;96.59;100059.22;5046761;28;20051;-81
2022/10/26 07:06:26;;;;;;;8.98;4.40;;;;;;;13.39;96.86;100070.00;5041961;28;20079;-81
2022/10/26 07:08:53;;;;;;;12.10;3.80;;;;;;;13.44;96.35;100072.25;5038396;28;20044;-81
2022/10/26 07:11:19;;;;;;;12.43;4.30;;;;;;;13.45;96.70;100071.25;5040811;28;20091;-81
2022/10/26 07:13:48;;;;;;;7.57;4.22;;;;;;;13.50;96.38;100076.13;5042271;28;20076;-81
2022/10/26 07:16:15;;;;;;;10.40;4.10;;;;;;;13.53;95.97;100071.31;5043955;28;20049;-81
2022/10/26 07:18:42;;;;;;;12.98;4.20;;;;;;;13.52;96.27;100076.84;5045852;28;20123;-81
2022/10/26 07:21:09;;;;;;;12.10;4.28;;;;;;;13.55;96.08;100080.03;5048834;28;20131;-80
2022/10/26 07:23:36;;;;;;;12.68;4.65;;;;;;;13.54;96.20;100078.38;5048440;28;20484;-80
2022/10/26 07:26:02;;;;;;;8.90;4.13;;;;;;;13.56;96.10;100087.06;5039280;28;20048;-80
2022/10/26 07:28:29;;;;;;;10.00;4.10;;;;;;;13.57;95.93;100086.06;5043101;28;20072;-80
2022/10/26 07:30:57;;;;;;;8.90;3.60;;;;;;;13.59;96.37;100096.59;5025732;28;20049;-80
2022/10/26 07:33:24;;;;;;;13.25;3.85;;;;;;;13.59;96.93;100093.94;5028703;28;20382;-80
2022/10/26 07:35:51;;;;;;;10.00;4.63;;;;;;;13.62;97.17;100091.78;5023837;28;20500;-81
2022/10/26 07:38:18;;;;;;;16.48;6.90;;;;;;;13.64;96.97;100094.31;5038064;28;20056;-81
2022/10/26 07:40:45;;;;;;;14.48;7.40;;;;;;;13.65;97.00;100098.66;5026057;28;20095;-81
2022/10/26 07:43:12;;;;;;;11.30;6.25;;;;;;;13.65;97.08;100101.31;5040455;28;20459;-81
2022/10/26 07:45:39;;;;;;;12.57;5.28;;;;;;;13.66;96.86;100109.19;5025661;28;20045;-81
2022/10/26 07:48:06;;;;;;;13.48;4.63;;;;;;;13.68;96.77;100109.03;5042162;28;20041;-81
2022/10/26 07:50:32;;;;;;;14.10;5.05;;;;;;;13.67;96.83;100116.19;5040926;28;20045;-81
2022/10/26 07:52:59;;;;;;;10.40;4.72;;;;;;;13.69;96.71;100116.06;5023266;28;20073;-81
2022/10/26 07:55:27;;;;;;;14.95;5.18;;;;;;;13.71;96.76;100115.91;5039626;28;20065;-81
2022/10/26 07:57:54;;;;;;;12.43;5.15;;;;;;;13.67;97.06;100124.22;5041754;28;20412;-81
2022/10/26 08:00:21;;;;;;;13.10;4.93;;;;;;;13.69;96.23;100134.75;5038810;28;20049;-81
2022/10/26 08:02:48;;;;;;;17.65;5.63;;;;;;;13.71;96.25;100138.09;5037674;28;20505;-81
2022/10/26 08:05:15;;;;;;;17.25;5.72;;;;;;;13.71;96.47;100137.25;5025940;28;20377;-81
2022/10/26 08:07:45;;;;;;;17.17;5.32;;;;;;;13.72;96.14;100144.28;5034703;28;20496;-81
2022/10/26 08:10:13;;;;;;;22.08;6.15;;;;;;;13.74;95.95;100136.94;5037114;28;20065;-81
2022/10/26 08:12:41;;;;;;;36.70;7.72;;;;;;;13.77;96.22;100144.69;5023957;28;20124;-81
2022/10/26 08:15:08;;;;;;;25.10;6.35;;;;;;;13.75;96.33;100143.97;5026893;28;20468;-81
2022/10/26 08:17:35;;;;;;;20.02;5.82;;;;;;;13.75;96.32;100141.31;5036680;28;20045;-81
2022/10/26 08:20:02;;;;;;;18.60;5.85;;;;;;;13.77;96.15;100140.19;5022563;28;20073;-81
2022/10/26 08:22:29;;;;;;;17.63;6.00;;;;;;;13.80;96.06;100137.19;5030847;28;20033;-81
2022/10/26 08:24:56;;;;;;;19.55;6.15;;;;;;;13.78;96.29;100139.16;5009498;28;20126;-81
2022/10/26 08:27:22;;;;;;;13.18;5.72;;;;;;;13.81;96.12;100146.88;5035768;28;20045;-81
2022/10/26 08:29:49;;;;;;;13.23;5.22;;;;;;;13.82;96.23;100150.41;5039448;28;20052;-82
2022/10/26 08:32:16;;;;;;;10.48;4.97;;;;;;;13.86;96.18;100146.44;5040559;28;20072;-81
2022/10/26 08:34:43;;;;;;;14.30;5.47;;;;;;;13.87;95.89;100143.63;5042458;28;20048;-81
2022/10/26 08:37:09;;;;;;;12.55;5.28;;;;;;;13.92;95.78;100142.31;5021146;28;20049;-82
2022/10/26 08:39:36;;;;;;;11.95;5.75;;;;;;;13.95;95.64;100144.72;5036542;28;20080;-82
2022/10/26 08:42:09;;;;;;;9.52;5.20;;;;;;;13.96;95.53;100141.03;5027392;28;20394;-82
2022/10/26 08:44:43;;;;;;;9.32;5.10;;;;;;;13.94;95.22;100137.69;5021461;28;20072;-81
2022/10/26 08:47:17;;;;;;;11.80;5.00;;;;;;;13.91;95.05;100141.50;5043042;28;20155;-81
2022/10/26 08:50:13;;;;;;;13.38;5.10;;;;;;;13.89;94.88;100133.66;5023323;28;20073;-82
2022/10/26 08:52:48;;;;;;;9.38;4.70;;;;;;;13.89;94.83;100139.00;5006208;28;20378;-82
2022/10/26 08:55:18;;;;;;;14.35;5.82;;;;;;;13.95;94.95;100145.56;5022817;28;20080;-81
2022/10/26 08:57:46;;;;;;;13.48;5.22;;;;;;;13.97;95.26;100140.91;5038826;28;20044;-82
2022/10/26 09:00:27;;;;;;;14.93;5.57;;;;;;;13.97;95.56;100140.91;5021173;28;20408;-82
2022/10/26 09:02:54;;;;;;;12.48;5.80;;;;;;;14.02;95.53;100143.97;5008287;28;20072;-81
2022/10/26 09:05:30;;;;;;;23.45;8.45;;;;;;;14.03;95.32;100148.31;5042158;28;20068;-81
2022/10/26 09:08:20;;;;;;;15.65;7.75;;;;;;;14.04;95.45;100155.34;5002198;28;20065;-81
2022/10/26 09:10:58;;;;;;;15.65;6.80;;;;;;;14.05;95.95;100159.69;4974424;28;20480;-81
2022/10/26 09:13:57;;;;;;;13.38;6.10;;;;;;;14.04;95.79;100163.34;5020397;28;20107;-80
2022/10/26 09:16:56;;;;;;;8.80;5.45;;;;;;;14.12;95.75;100170.59;4986677;28;20492;-81
2022/10/26 09:19:29;;;;;;;11.13;5.88;;;;;;;14.17;95.92;100164.78;5041927;28;20044;-80
2022/10/26 09:22:22;;;;;;;12.13;5.72;;;;;;;14.13;95.89;100177.63;5029709;28;20087;-81
2022/10/26 09:24:54;;;;;;;8.27;5.57;;;;;;;14.20;95.62;100183.22;4987049;28;20107;-81
2022/10/26 09:27:26;;;;;;;14.57;6.50;;;;;;;14.21;95.75;100185.72;5037567;28;20451;-81
2022/10/26 09:29:56;;;;;;;15.15;6.03;;;;;;;14.24;95.73;100187.25;5046041;28;20044;-81
2022/10/26 09:32:26;;;;;;;11.32;5.95;;;;;;;14.24;95.43;100188.06;5011991;28;20128;-80
2022/10/26 09:34:56;;;;;;;11.20;5.00;;;;;;;14.27;95.60;100197.63;5043789;28;20041;-81
2022/10/26 09:37:27;;;;;;;15.70;5.65;;;;;;;14.30;95.72;100197.34;5020519;28;20041;-81
2022/10/26 09:39:55;;;;;;;11.20;5.15;;;;;;;14.31;96.06;100205.19;5041569;28;20045;-81
2022/10/26 09:42:44;;;;;;;9.68;5.40;;;;;;;14.32;95.85;100201.53;5039873;28;20106;-82
2022/10/26 09:45:17;;;;;;;8.82;5.03;;;;;;;14.35;95.88;100205.75;5002666;28;20067;-80
2022/10/26 09:47:52;;;;;;;9.13;5.50;;;;;;;14.39;95.64;100203.59;5043511;28;20488;-80
2022/10/26 09:50:23;;;;;;;11.73;5.30;;;;;;;14.44;95.99;100207.50;5045859;28;20061;-81
2022/10/26 09:52:50;;;;;;;11.93;5.30;;;;;;;14.48;95.93;100208.03;5032849;28;20439;-81
2022/10/26 09:55:19;;;;;;;9.43;5.20;;;;;;;14.52;95.81;100210.25;5037669;28;20044;-81
2022/10/26 09:57:49;;;;;;;13.20;5.47;;;;;;;14.56;95.50;100207.31;5017882;28;20227;-82
2022/10/26 10:00:23;;;;;;;10.60;5.90;;;;;;;14.59;95.34;100207.00;5031052;28;20523;-81
2022/10/26 10:02:55;;;;;;;11.50;5.03;;;;;;;14.61;95.37;100213.88;5029462;28;20068;-81
2022/10/26 10:05:30;;;;;;;11.60;5.78;;;;;;;14.65;95.23;100206.38;5021883;28;20041;-82
2022/10/26 10:08:17;;;;;;;11.93;5.05;;;;;;;14.66;95.62;100203.56;4993378;28;20052;-82
2022/10/26 10:10:52;;;;;;;10.32;4.25;;;;;;;14.66;95.50;100210.75;5045483;28;20057;-82
2022/10/26 10:13:21;;;;;;;7.15;4.28;;;;;;;14.75;95.90;100204.47;5006773;28;20041;-82
2022/10/26 10:16:00;;;;;;;7.78;4.65;;;;;;;14.75;95.88;100202.63;5030525;28;20518;-82
2022/10/26 10:18:27;;;;;;;15.50;5.55;;;;;;;14.83;96.02;100211.72;5027495;28;20092;-81
2022/10/26 10:20:56;;;;;;;10.50;4.90;;;;;;;14.86;96.12;100214.94;5041328;28;20037;-82
2022/10/26 10:23:31;;;;;;;9.25;4.95;;;;;;;14.85;96.14;100209.75;5045472;28;20151;-81
2022/10/26 10:26:10;;;;;;;11.77;5.40;;;;;;;14.88;96.09;100209.41;4998384;28;20497;-82
2022/10/26 10:28:37;;;;;;;8.07;4.63;;;;;;;14.97;96.00;100203.16;5010124;28;21590;-82
2022/10/26 10:31:25;;;;;;;9.00;3.92;;;;;;;15.01;95.96;100212.56;5044300;28;20045;-82
2022/10/26 10:33:53;;;;;;;9.63;4.88;;;;;;;15.05;96.52;100213.91;4981495;28;20488;-82
2022/10/26 10:36:21;;;;;;;13.85;4.82;;;;;;;15.08;97.18;100213.59;5037689;28;20033;-82
2022/10/26 10:38:50;;;;;;;10.13;4.18;;;;;;;15.14;97.37;100220.19;5028923;28;20036;-81
2022/10/26 10:41:29;;;;;;;9.52;4.95;;;;;;;15.12;97.28;100216.81;5026612;28;20484;-82
2022/10/26 10:44:06;;;;;;;14.07;4.63;;;;;;;15.13;97.84;100222.00;4996241;28;20040;-82
2022/10/26 10:46:33;;;;;;;9.88;4.82;;;;;;;15.24;97.81;100212.91;5016747;28;20037;-82
2022/10/26 10:49:02;;;;;;;9.40;4.72;;;;;;;15.27;98.31;100214.41;5036116;28;20056;-83
2022/10/26 10:51:35;;;;;;;9.95;4.85;;;;;;;15.30;98.61;100220.28;5017234;28;20045;-85
2022/10/26 10:54:02;;;;;;;;;;;;;;;15.14;99.14;100214.84;5026744;28;20053;-85
2022/10/26 10:56:28;;;;;;;13.38;5.50;;;;;;;15.32;99.19;100207.59;5046102;28;20003;-85
2022/10/26 10:58:58;;;;;;;5.47;4.22;;;;;;;15.38;99.70;100211.47;5039731;28;20064;-84
2022/10/26 11:01:30;;;;;;;8.13;4.32;;;;;;;15.43;99.33;100211.00;5036555;28;20152;-84
2022/10/26 11:04:29;;;;;;;11.82;4.20;;;;;;;15.41;99.69;100205.78;5014612;28;20041;-86
2022/10/26 11:06:59;;;;;;;7.35;3.65;;;;;;;15.53;99.60;100207.22;5005013;28;20434;-87
2022/10/26 11:09:28;;;;;;;7.45;3.88;;;;;;;15.63;99.76;100204.44;5035464;28;20128;-88
2022/10/26 11:12:06;;;;;;;10.27;3.50;;;;;;;15.64;99.19;100204.25;5042344;28;20052;-86
2022/10/26 11:14:38;;;;;;;6.00;3.30;;;;;;;15.72;99.11;100208.00;5013090;28;20049;-87
2022/10/26 11:17:13;;;;;;;12.80;3.97;;;;;;;15.73;99.34;100207.84;5023963;28;20461;-87
2022/10/26 11:20:14;;;;;;;12.75;3.50;;;;;;;15.76;99.16;100217.41;5032152;28;20045;-87
2022/10/26 11:22:59;;;;;;;6.85;3.22;;;;;;;15.84;99.10;100212.91;4909903;28;20049;-87
2022/10/26 11:25:40;;;;;;;7.90;3.15;;;;;;;15.92;98.98;100217.47;4991150;28;20045;-82
2022/10/26 11:28:41;;;;;;;16.13;3.67;;;;;;;15.93;99.50;100223.69;5025088;28;20460;-84
2022/10/26 11:31:15;;;;;;;7.32;3.30;;;;;;;15.99;98.74;100223.03;4998833;28;20381;-85
2022/10/26 11:34:09;;;;;;;8.95;2.65;;;;;;;15.98;98.02;100216.84;5024842;28;20115;-85
2022/10/26 11:36:38;;;;;;;7.10;2.90;;;;;;;16.00;97.94;100224.69;4990579;28;20059;-82
2022/10/26 11:39:31;;;;;;;13.57;3.42;;;;;;;16.02;97.72;100230.75;5041840;28;20554;-82
2022/10/26 11:42:08;;;;;;;9.70;3.22;;;;;;;15.98;97.50;100218.69;4989425;28;20444;-83
2022/10/26 11:44:52;;;;;;;10.98;3.53;;;;;;;16.00;97.67;100230.06;5029716;28;20037;-82